Producer — WDH9695 — position and weather

sailwx.info

Track history (hours):
 
Tides and Currents Weather Stations Pressure Air Temp Water Temp Dewpoint Dewpoint Depression Visibility Wind Speed Wind Dir Waves Ship Positions

Producer

Owner: Pro Sportfishing, San Diego, CA, CA. More information available from US FCC via Universal Licensing System and Coast Guard Vessel Documentation Center.

Last reported at 2017-Sep-26 21:30 UTC. Time now 2017-Sep-26 21:47 UTC.
Position N 32°43' W 117°14'.

Type: Passenger vessel. MMSI: 367033990.

Date/timePositionNaut miles runAvg speedWind from/ knotsBaromVisibWave heightAir tempDewpointWater temp
2017-Sep-26 21:30N 32°43' W 117°14'0 0.0
2017-Sep-26 21:00N 32°43' W 117°14'0 0.0
2017-Sep-26 20:30N 32°43' W 117°14'0 0.0
2017-Sep-26 20:01N 32°43' W 117°14'0 0.0
2017-Sep-26 19:30N 32°43' W 117°14'0 0.0
2017-Sep-26 19:00N 32°43' W 117°14'0 0.0
2017-Sep-26 18:29N 32°43' W 117°14'0 0.0
2017-Sep-26 17:58N 32°43' W 117°14'0 0.0
2017-Sep-26 17:30N 32°43' W 117°14'0 0.0
2017-Sep-26 17:00N 32°43' W 117°14'0 0.0
2017-Sep-26 16:29N 32°43' W 117°14'0 0.0
2017-Sep-26 16:00N 32°43' W 117°14'0 0.0
2017-Sep-26 15:22N 32°43' W 117°14'0 0.0
2017-Sep-26 14:59N 32°43' W 117°14'0 0.0
2017-Sep-26 14:30N 32°43' W 117°14'0 0.0
2017-Sep-26 14:00N 32°43' W 117°14'0 0.0
2017-Sep-26 13:31N 32°43' W 117°14'0 0.0
2017-Sep-26 13:00N 32°43' W 117°14'0 0.0
2017-Sep-26 12:30N 32°43' W 117°14'0 0.0
2017-Sep-26 12:01N 32°43' W 117°14'0 0.0
2017-Sep-26 11:30N 32°43' W 117°14'0 0.0
2017-Sep-26 11:00N 32°43' W 117°14'0 0.0
2017-Sep-26 10:31N 32°43' W 117°14'0 0.0
2017-Sep-26 10:00N 32°43' W 117°14'0 0.0
2017-Sep-26 09:30N 32°43' W 117°14'0 0.0
2017-Sep-26 09:00N 32°43' W 117°14'0 0.0
2017-Sep-26 08:30N 32°43' W 117°14'0 0.0
2017-Sep-26 08:00N 32°43' W 117°14'0 0.0
2017-Sep-26 07:31N 32°43' W 117°14'0 0.0
2017-Sep-26 07:01N 32°43' W 117°14'0 0.0
2017-Sep-26 06:30N 32°43' W 117°14'0 0.0
2017-Sep-26 06:00N 32°43' W 117°14'0 0.0
2017-Sep-26 05:31N 32°43' W 117°14'0 0.0
2017-Sep-26 05:00N 32°43' W 117°14'0 0.0
2017-Sep-26 04:30N 32°43' W 117°14'0 0.0
2017-Sep-26 04:00N 32°43' W 117°14'0 0.0
2017-Sep-26 03:30N 32°43' W 117°14'0 0.0
2017-Sep-26 03:00N 32°43' W 117°14'0 0.0
2017-Sep-26 02:30N 32°43' W 117°14'1 1.7
2017-Sep-26 02:01N 32°43' W 117°13'4 8.8
2017-Sep-26 01:31N 32°38' W 117°14'4 8.8
2017-Sep-26 01:01N 32°36' W 117°18'5 9.5
2017-Sep-26 00:30N 32°35' W 117°24'5 9.7
2017-Sep-26 00:00N 32°33' W 117°30'5 9.6
2017-Sep-25 23:30N 32°32' W 117°35'5 9.6
2017-Sep-25 23:01N 32°30' W 117°40'3 6.1
2017-Sep-25 22:31N 32°29' W 117°43'3 5.4
2017-Sep-25 22:00N 32°29' W 117°47'2 3.7
2017-Sep-25 21:30N 32°30' W 117°48'2 3.3
2017-Sep-25 21:00N 32°32' W 117°47'1 2.7
2017-Sep-25 20:31N 32°33' W 117°48'4 7.3
2017-Sep-25 20:01N 32°34' W 117°52'4 8.3
2017-Sep-25 19:31N 32°35' W 117°57'4 8.3
2017-Sep-25 19:00N 32°36' W 118°02'3 6.6
2017-Sep-25 18:30N 32°39' W 118°04'4 7.5
2017-Sep-25 17:58N 32°42' W 118°02'4 7.8
2017-Sep-25 17:30N 32°45' W 117°59'4 7.4
2017-Sep-25 17:00N 32°48' W 117°56'2 4.7
2017-Sep-25 16:31N 32°50' W 117°58'3 5.1
2017-Sep-25 16:00N 32°52' W 117°60'4 8.1
2017-Sep-25 15:31N 32°51' W 118°04'3 5.7
2017-Sep-25 14:59N 32°53' W 118°01'3 6.9
2017-Sep-25 14:31N 32°55' W 117°58'3 6.2
2017-Sep-25 14:00N 32°58' W 117°59'4 7.5
2017-Sep-25 13:30N 33°01' W 118°02'1 2.0
2017-Sep-25 13:00N 33°01' W 118°04'2 4.0
2017-Sep-25 12:30N 32°59' W 118°04'0 0.2
2017-Sep-25 12:01N 32°59' W 118°04'3 7.0
2017-Sep-25 11:31N 32°57' W 118°01'4 7.6
2017-Sep-25 11:00N 32°55' W 117°56'4 8.9
2017-Sep-25 10:31N 32°54' W 117°51'4 7.3
2017-Sep-25 10:00N 32°52' W 117°48'3 5.1
2017-Sep-25 09:31N 32°51' W 117°45'5 9.0
2017-Sep-25 09:01N 32°49' W 117°40'5 9.5
2017-Sep-25 08:31N 32°47' W 117°35'5 9.2
2017-Sep-25 08:01N 32°45' W 117°30'5 9.3
2017-Sep-25 07:31N 32°43' W 117°25'5 9.3
2017-Sep-25 07:00N 32°41' W 117°20'4 9.0
2017-Sep-25 06:31N 32°39' W 117°16'3 6.4
2017-Sep-25 06:00N 32°42' W 117°14'0 0.3
2017-Sep-25 05:30N 32°42' W 117°14'2 3.5
2017-Sep-25 05:00N 32°43' W 117°14'0 0.0
2017-Sep-25 04:30N 32°43' W 117°14'0 0.0
2017-Sep-25 04:00N 32°43' W 117°14'0 0.0
2017-Sep-25 03:30N 32°43' W 117°14'0 0.0
2017-Sep-25 03:01N 32°43' W 117°14'0 0.0
2017-Sep-25 02:30N 32°43' W 117°14'1 1.6
2017-Sep-25 02:01N 32°43' W 117°13'4 8.6
2017-Sep-25 01:30N 32°38' W 117°14'4 8.7
2017-Sep-25 01:00N 32°37' W 117°19'4 9.0
2017-Sep-25 00:31N 32°35' W 117°24'5 9.3
2017-Sep-25 00:01N 32°34' W 117°29'5 9.3
2017-Sep-24 23:31N 32°33' W 117°35'5 9.4
2017-Sep-24 23:01N 32°31' W 117°40'3 5.8
2017-Sep-24 22:30N 32°30' W 117°43'3 6.0
2017-Sep-24 22:00N 32°30' W 117°46'3 6.2
2017-Sep-24 21:31N 32°27' W 117°45'3 6.2
2017-Sep-24 21:01N 32°24' W 117°43'4 7.2
2017-Sep-24 20:30N 32°23' W 117°39'3 6.8
2017-Sep-24 20:00N 32°22' W 117°35'4 7.4
2017-Sep-24 19:30N 32°20' W 117°32'3 6.3
2017-Sep-24 19:01N 32°17' W 117°31'2 4.3
2017-Sep-24 18:31N 32°15' W 117°30'4 7.1
2017-Sep-24 18:00N 32°13' W 117°26'3 6.7
2017-Sep-24 17:30N 32°10' W 117°24'3 4.1
2017-Sep-24 16:45N 32°08' W 117°21'2 6.1
2017-Sep-24 16:27N 32°07' W 117°19'1 1.5
2017-Sep-24 16:00N 32°07' W 117°19'24 2.7
2017-Sep-24 07:21N 32°30' W 117°16'3 8.0
2017-Sep-24 07:00N 32°33' W 117°15'4 7.7
2017-Sep-24 06:31N 32°37' W 117°14'4 7.8
2017-Sep-24 06:00N 32°41' W 117°14'1 2.1
2017-Sep-24 05:30N 32°42' W 117°14'2 3.0
2017-Sep-24 04:56N 32°43' W 117°13'1 1.3
2017-Sep-24 04:30N 32°43' W 117°14'0 0.0
2017-Sep-24 04:00N 32°43' W 117°14'0 0.0
2017-Sep-24 03:31N 32°43' W 117°14'0 0.0
2017-Sep-24 03:00N 32°43' W 117°14'3 5.4
2017-Sep-24 02:30N 32°41' W 117°14'5 9.5
2017-Sep-24 02:00N 32°36' W 117°13'5 9.1
2017-Sep-24 01:30N 32°31' W 117°14'4 9.0
2017-Sep-24 01:00N 32°27' W 117°15'5 9.0
2017-Sep-24 00:28N 32°22' W 117°15'21 0.5
2017-Sep-22 01:57N 32°43' W 117°13'4 9.2
2017-Sep-22 01:30N 32°39' W 117°13'4 8.5
2017-Sep-22 01:01N 32°35' W 117°14'4 8.1
2017-Sep-22 00:30N 32°31' W 117°15'4 8.2
2017-Sep-21 23:59N 32°27' W 117°16'4 8.2
2017-Sep-21 23:29N 32°23' W 117°17'5 0.3
2017-Sep-21 07:46N 32°28' W 117°16'3 9.6
2017-Sep-21 07:30N 32°30' W 117°16'5 9.5
2017-Sep-21 07:00N 32°35' W 117°15'5 9.1
2017-Sep-21 06:30N 32°39' W 117°14'2 5.0
2017-Sep-21 06:00N 32°42' W 117°14'0 0.1
2017-Sep-21 05:30N 32°42' W 117°14'2 3.6
2017-Sep-21 05:01N 32°43' W 117°14'0 0.0
2017-Sep-21 04:30N 32°43' W 117°14'0 0.0
2017-Sep-21 04:00N 32°43' W 117°14'0 0.0
2017-Sep-21 03:30N 32°43' W 117°14'0 0.0
2017-Sep-21 03:00N 32°43' W 117°14'0 0.0
2017-Sep-21 02:30N 32°43' W 117°14'1 1.3
2017-Sep-21 02:00N 32°43' W 117°13'2 3.6
2017-Sep-21 01:31N 32°42' W 117°14'5 9.2
2017-Sep-21 01:00N 32°37' W 117°14'4 8.4
2017-Sep-21 00:31N 32°33' W 117°15'4 8.4
2017-Sep-21 00:00N 32°29' W 117°16'5 8.7
2017-Sep-20 23:27N 32°24' W 117°18'13 0.8
2017-Sep-20 06:41N 32°37' W 117°15'2 8.2
2017-Sep-20 06:29N 32°38' W 117°14'3 6.7
2017-Sep-20 06:00N 32°42' W 117°14'0 0.0
2017-Sep-20 05:30N 32°42' W 117°14'2 3.7
2017-Sep-20 05:00N 32°43' W 117°14'0 0.0
2017-Sep-20 04:30N 32°43' W 117°14'0 0.0
2017-Sep-20 04:00N 32°43' W 117°14'0 0.1
2017-Sep-20 03:20N 32°43' W 117°14'0 0.2
2017-Sep-20 03:00N 32°43' W 117°14'3 6.5
2017-Sep-20 02:30N 32°40' W 117°14'4 8.1
2017-Sep-20 02:00N 32°39' W 117°18'510.4
2017-Sep-20 01:30N 32°41' W 117°24'510.4
2017-Sep-20 01:00N 32°42' W 117°30'510.1
2017-Sep-20 00:30N 32°42' W 117°36'4 7.3
2017-Sep-20 00:00N 32°42' W 117°41'5 9.1
2017-Sep-19 23:30N 32°42' W 117°46'4 7.8
2017-Sep-19 23:00N 32°42' W 117°51'3 5.2
2017-Sep-19 22:30N 32°42' W 117°54'5 9.6
2017-Sep-19 22:00N 32°42' W 117°60'5 9.7
2017-Sep-19 21:30N 32°42' W 118°05'4 8.1
2017-Sep-19 21:00N 32°42' W 118°10'5 9.3
2017-Sep-19 20:26N 32°43' W 118°16'8 5.9
2017-Sep-19 19:07N 32°45' W 118°25'0 1.0
2017-Sep-19 18:52N 32°45' W 118°25'1 0.9
2017-Sep-19 18:07N 32°45' W 118°26'31 3.6
2017-Sep-19 09:30N 32°43' W 117°50'5 9.4
2017-Sep-19 09:00N 32°43' W 117°44'5 9.2
2017-Sep-19 08:30N 32°42' W 117°39'5 9.5
2017-Sep-19 08:00N 32°41' W 117°33'5 9.5
2017-Sep-19 07:30N 32°40' W 117°28'5 9.2
2017-Sep-19 07:00N 32°39' W 117°23'4 8.8
2017-Sep-19 06:30N 32°38' W 117°18'4 7.3
2017-Sep-19 06:00N 32°40' W 117°14'2 4.1
2017-Sep-19 05:30N 32°42' W 117°14'0 0.0
2017-Sep-19 05:00N 32°42' W 117°14'2 3.6
2017-Sep-19 04:30N 32°43' W 117°14'0 0.0
2017-Sep-19 04:00N 32°43' W 117°14'0 0.0
2017-Sep-19 03:30N 32°43' W 117°14'0 0.0
2017-Sep-19 02:59N 32°43' W 117°14'1 1.3
2017-Sep-19 02:30N 32°43' W 117°13'0 0.1
2017-Sep-19 02:00N 32°43' W 117°13'3 6.2
2017-Sep-19 01:30N 32°40' W 117°14'4 7.7
2017-Sep-19 01:00N 32°37' W 117°15'4 8.4
2017-Sep-19 00:30N 32°35' W 117°20'4 8.4
2017-Sep-19 00:00N 32°33' W 117°24'4 8.4
2017-Sep-18 23:30N 32°30' W 117°28'3 7.0
2017-Sep-18 23:00N 32°28' W 117°31'4 7.9
2017-Sep-18 22:30N 32°29' W 117°35'2 3.1
2017-Sep-18 22:00N 32°30' W 117°37'3 6.6
2017-Sep-18 21:30N 32°27' W 117°34'3 5.1
2017-Sep-18 21:00N 32°25' W 117°33'3 5.6
2017-Sep-18 20:30N 32°22' W 117°32'3 5.2
2017-Sep-18 19:56N 32°21' W 117°29'1 1.7
2017-Sep-18 19:30N 32°21' W 117°29'2 1.3
2017-Sep-18 17:45N 32°19' W 117°27'4 7.5
2017-Sep-18 17:15N 32°23' W 117°29'2 7.8
2017-Sep-18 17:00N 32°25' W 117°30'4 7.9
2017-Sep-18 16:30N 32°27' W 117°33'2 3.4
2017-Sep-18 16:00N 32°28' W 117°35'5 7.0
2017-Sep-18 15:13N 32°30' W 117°29'1 5.6
2017-Sep-18 15:00N 32°30' W 117°30'2 4.6
2017-Sep-18 14:30N 32°28' W 117°30'1 2.9
2017-Sep-18 14:00N 32°28' W 117°29'0 0.4
2017-Sep-18 13:30N 32°28' W 117°29'0 0.4
2017-Sep-18 12:57N 32°28' W 117°29'0 0.3
2017-Sep-18 12:30N 32°28' W 117°29'0 0.4
2017-Sep-18 12:00N 32°28' W 117°29'0 0.3
2017-Sep-18 11:30N 32°28' W 117°30'0 0.3
2017-Sep-18 10:58N 32°29' W 117°30'0 0.4
2017-Sep-18 10:30N 32°29' W 117°30'0 0.4
2017-Sep-18 10:00N 32°29' W 117°30'0 0.4
2017-Sep-18 09:25N 32°29' W 117°30'0 0.3
2017-Sep-18 08:59N 32°29' W 117°30'3 3.7
2017-Sep-18 08:06N 32°31' W 117°27'1 6.8
2017-Sep-18 07:59N 32°31' W 117°26'9 7.5
2017-Sep-18 06:46N 32°36' W 117°17'4 8.0
2017-Sep-18 06:14N 32°39' W 117°14'2 9.2
2017-Sep-18 06:00N 32°41' W 117°14'1 1.3
2017-Sep-18 05:30N 32°42' W 117°14'2 2.6
2017-Sep-18 04:51N 32°43' W 117°13'1 1.4
2017-Sep-18 04:30N 32°43' W 117°14'0 0.0
2017-Sep-18 04:01N 32°43' W 117°14'0 0.0
2017-Sep-18 03:30N 32°43' W 117°14'0 0.0
2017-Sep-18 03:01N 32°43' W 117°14'0 0.0
2017-Sep-18 02:30N 32°43' W 117°14'0 0.0
2017-Sep-18 02:01N 32°43' W 117°14'0 0.0
2017-Sep-18 01:30N 32°43' W 117°14'0 0.0
2017-Sep-18 00:58N 32°43' W 117°14'0 0.0
2017-Sep-18 00:30N 32°43' W 117°14'0 0.0
2017-Sep-18 00:00N 32°43' W 117°14'0 0.0
2017-Sep-17 23:30N 32°43' W 117°14'0 0.0
2017-Sep-17 23:00N 32°43' W 117°14'0 0.0
2017-Sep-17 22:30N 32°43' W 117°14'0 0.0
2017-Sep-17 21:59N 32°43' W 117°14'0 0.0
2017-Sep-17 21:30N 32°43' W 117°14'0 0.0
2017-Sep-17 21:00N 32°43' W 117°14'0 0.0
2017-Sep-17 20:31N 32°43' W 117°14'0 0.0
2017-Sep-17 20:00N 32°43' W 117°14'0 0.0
2017-Sep-17 19:31N 32°43' W 117°14'0 0.0
2017-Sep-17 19:00N 32°43' W 117°14'0 0.0
2017-Sep-17 18:30N 32°43' W 117°14'0 0.0
2017-Sep-17 18:01N 32°43' W 117°14'0 0.0
2017-Sep-17 17:30N 32°43' W 117°14'0 0.0
2017-Sep-17 17:00N 32°43' W 117°14'0 0.0
2017-Sep-17 16:30N 32°43' W 117°14'0 0.0
2017-Sep-17 16:00N 32°43' W 117°14'0 0.0
2017-Sep-17 15:30N 32°43' W 117°14'0 0.0
2017-Sep-17 15:00N 32°43' W 117°14'0 0.0
2017-Sep-17 14:31N 32°43' W 117°14'0 0.0
2017-Sep-17 14:00N 32°43' W 117°14'0 0.0
2017-Sep-17 13:30N 32°43' W 117°14'0 0.0
2017-Sep-17 13:01N 32°43' W 117°14'0 0.0
2017-Sep-17 12:30N 32°43' W 117°14'0 0.0
2017-Sep-17 12:00N 32°43' W 117°14'0 0.0
2017-Sep-17 11:30N 32°43' W 117°14'0 0.0
2017-Sep-17 11:00N 32°43' W 117°14'0 0.0
2017-Sep-17 10:30N 32°43' W 117°14'0 0.0
2017-Sep-17 10:00N 32°43' W 117°14'0 0.0
2017-Sep-17 09:30N 32°43' W 117°14'0 0.0
2017-Sep-17 09:00N 32°43' W 117°14'0 0.0
2017-Sep-17 08:30N 32°43' W 117°14'0 0.0
2017-Sep-17 08:01N 32°43' W 117°14'0 0.0
2017-Sep-17 07:30N 32°43' W 117°14'0 0.0
2017-Sep-17 07:00N 32°43' W 117°14'0 0.0
2017-Sep-17 06:31N 32°43' W 117°14'0 0.0
2017-Sep-17 06:00N 32°43' W 117°14'0 0.0
2017-Sep-17 05:30N 32°43' W 117°14'0 0.0
2017-Sep-17 05:00N 32°43' W 117°14'0 0.0
2017-Sep-17 04:30N 32°43' W 117°14'0 0.0
2017-Sep-17 04:00N 32°43' W 117°14'0 0.0
2017-Sep-17 03:30N 32°43' W 117°14'0 0.0
2017-Sep-17 03:01N 32°43' W 117°14'0 0.0
2017-Sep-17 02:30N 32°43' W 117°14'1 3.0
2017-Sep-17 02:01N 32°42' W 117°14'4 7.9
2017-Sep-17 01:30N 32°39' W 117°16'5 9.8
2017-Sep-17 01:00N 32°38' W 117°22'5 9.7
2017-Sep-17 00:30N 32°37' W 117°28'5 9.7
2017-Sep-17 00:01N 32°36' W 117°33'5 9.6
2017-Sep-16 23:30N 32°35' W 117°39'3 6.4
2017-Sep-16 23:00N 32°34' W 117°43'1 2.2
2017-Sep-16 22:30N 32°33' W 117°41'3 5.6
2017-Sep-16 22:01N 32°31' W 117°40'2 4.3
2017-Sep-16 21:30N 32°28' W 117°40'  
Track history (hours):
 
Tides and Currents Weather Stations Pressure Air Temp Water Temp Dewpoint Dewpoint Depression Visibility Wind Speed Wind Dir Waves Ship Positions

Producer

Owner: Pro Sportfishing, San Diego, CA, CA. More information available from US FCC via Universal Licensing System and Coast Guard Vessel Documentation Center.

Last reported at 2017-Sep-26 21:30 UTC. Time now 2017-Sep-26 21:47 UTC.
Position N 32°43' W 117°14'.

Type: Passenger vessel. MMSI: 367033990.

Date/timePositionNaut miles runAvg speedWind from/ knotsBaromVisibWave heightAir tempDewpointWater temp
2017-Sep-26 21:30N 32°43' W 117°14'0 0.0
2017-Sep-26 21:00N 32°43' W 117°14'0 0.0
2017-Sep-26 20:30N 32°43' W 117°14'0 0.0
2017-Sep-26 20:01N 32°43' W 117°14'0 0.0
2017-Sep-26 19:30N 32°43' W 117°14'0 0.0
2017-Sep-26 19:00N 32°43' W 117°14'0 0.0
2017-Sep-26 18:29N 32°43' W 117°14'0 0.0
2017-Sep-26 17:58N 32°43' W 117°14'0 0.0
2017-Sep-26 17:30N 32°43' W 117°14'0 0.0
2017-Sep-26 17:00N 32°43' W 117°14'0 0.0
2017-Sep-26 16:29N 32°43' W 117°14'0 0.0
2017-Sep-26 16:00N 32°43' W 117°14'0 0.0
2017-Sep-26 15:22N 32°43' W 117°14'0 0.0
2017-Sep-26 14:59N 32°43' W 117°14'0 0.0
2017-Sep-26 14:30N 32°43' W 117°14'0 0.0
2017-Sep-26 14:00N 32°43' W 117°14'0 0.0
2017-Sep-26 13:31N 32°43' W 117°14'0 0.0
2017-Sep-26 13:00N 32°43' W 117°14'0 0.0
2017-Sep-26 12:30N 32°43' W 117°14'0 0.0
2017-Sep-26 12:01N 32°43' W 117°14'0 0.0
2017-Sep-26 11:30N 32°43' W 117°14'0 0.0
2017-Sep-26 11:00N 32°43' W 117°14'0 0.0
2017-Sep-26 10:31N 32°43' W 117°14'0 0.0
2017-Sep-26 10:00N 32°43' W 117°14'0 0.0
2017-Sep-26 09:30N 32°43' W 117°14'0 0.0
2017-Sep-26 09:00N 32°43' W 117°14'0 0.0
2017-Sep-26 08:30N 32°43' W 117°14'0 0.0
2017-Sep-26 08:00N 32°43' W 117°14'0 0.0
2017-Sep-26 07:31N 32°43' W 117°14'0 0.0
2017-Sep-26 07:01N 32°43' W 117°14'0 0.0
2017-Sep-26 06:30N 32°43' W 117°14'0 0.0
2017-Sep-26 06:00N 32°43' W 117°14'0 0.0
2017-Sep-26 05:31N 32°43' W 117°14'0 0.0
2017-Sep-26 05:00N 32°43' W 117°14'0 0.0
2017-Sep-26 04:30N 32°43' W 117°14'0 0.0
2017-Sep-26 04:00N 32°43' W 117°14'0 0.0
2017-Sep-26 03:30N 32°43' W 117°14'0 0.0
2017-Sep-26 03:00N 32°43' W 117°14'0 0.0
2017-Sep-26 02:30N 32°43' W 117°14'1 1.7
2017-Sep-26 02:01N 32°43' W 117°13'4 8.8
2017-Sep-26 01:31N 32°38' W 117°14'4 8.8
2017-Sep-26 01:01N 32°36' W 117°18'5 9.5
2017-Sep-26 00:30N 32°35' W 117°24'5 9.7
2017-Sep-26 00:00N 32°33' W 117°30'5 9.6
2017-Sep-25 23:30N 32°32' W 117°35'5 9.6
2017-Sep-25 23:01N 32°30' W 117°40'3 6.1
2017-Sep-25 22:31N 32°29' W 117°43'3 5.4
2017-Sep-25 22:00N 32°29' W 117°47'2 3.7
2017-Sep-25 21:30N 32°30' W 117°48'2 3.3
2017-Sep-25 21:00N 32°32' W 117°47'1 2.7
2017-Sep-25 20:31N 32°33' W 117°48'4 7.3
2017-Sep-25 20:01N 32°34' W 117°52'4 8.3
2017-Sep-25 19:31N 32°35' W 117°57'4 8.3
2017-Sep-25 19:00N 32°36' W 118°02'3 6.6
2017-Sep-25 18:30N 32°39' W 118°04'4 7.5
2017-Sep-25 17:58N 32°42' W 118°02'4 7.8
2017-Sep-25 17:30N 32°45' W 117°59'4 7.4
2017-Sep-25 17:00N 32°48' W 117°56'2 4.7
2017-Sep-25 16:31N 32°50' W 117°58'3 5.1
2017-Sep-25 16:00N 32°52' W 117°60'4 8.1
2017-Sep-25 15:31N 32°51' W 118°04'3 5.7
2017-Sep-25 14:59N 32°53' W 118°01'3 6.9
2017-Sep-25 14:31N 32°55' W 117°58'3 6.2
2017-Sep-25 14:00N 32°58' W 117°59'4 7.5
2017-Sep-25 13:30N 33°01' W 118°02'1 2.0
2017-Sep-25 13:00N 33°01' W 118°04'2 4.0
2017-Sep-25 12:30N 32°59' W 118°04'0 0.2
2017-Sep-25 12:01N 32°59' W 118°04'3 7.0
2017-Sep-25 11:31N 32°57' W 118°01'4 7.6
2017-Sep-25 11:00N 32°55' W 117°56'4 8.9
2017-Sep-25 10:31N 32°54' W 117°51'4 7.3
2017-Sep-25 10:00N 32°52' W 117°48'3 5.1
2017-Sep-25 09:31N 32°51' W 117°45'5 9.0
2017-Sep-25 09:01N 32°49' W 117°40'5 9.5
2017-Sep-25 08:31N 32°47' W 117°35'5 9.2
2017-Sep-25 08:01N 32°45' W 117°30'5 9.3
2017-Sep-25 07:31N 32°43' W 117°25'5 9.3
2017-Sep-25 07:00N 32°41' W 117°20'4 9.0
2017-Sep-25 06:31N 32°39' W 117°16'3 6.4
2017-Sep-25 06:00N 32°42' W 117°14'0 0.3
2017-Sep-25 05:30N 32°42' W 117°14'2 3.5
2017-Sep-25 05:00N 32°43' W 117°14'0 0.0
2017-Sep-25 04:30N 32°43' W 117°14'0 0.0
2017-Sep-25 04:00N 32°43' W 117°14'0 0.0
2017-Sep-25 03:30N 32°43' W 117°14'0 0.0
2017-Sep-25 03:01N 32°43' W 117°14'0 0.0
2017-Sep-25 02:30N 32°43' W 117°14'1 1.6
2017-Sep-25 02:01N 32°43' W 117°13'4 8.6
2017-Sep-25 01:30N 32°38' W 117°14'4 8.7
2017-Sep-25 01:00N 32°37' W 117°19'4 9.0
2017-Sep-25 00:31N 32°35' W 117°24'5 9.3
2017-Sep-25 00:01N 32°34' W 117°29'5 9.3
2017-Sep-24 23:31N 32°33' W 117°35'5 9.4
2017-Sep-24 23:01N 32°31' W 117°40'3 5.8
2017-Sep-24 22:30N 32°30' W 117°43'3 6.0
2017-Sep-24 22:00N 32°30' W 117°46'3 6.2
2017-Sep-24 21:31N 32°27' W 117°45'3 6.2
2017-Sep-24 21:01N 32°24' W 117°43'4 7.2
2017-Sep-24 20:30N 32°23' W 117°39'3 6.8
2017-Sep-24 20:00N 32°22' W 117°35'4 7.4
2017-Sep-24 19:30N 32°20' W 117°32'3 6.3
2017-Sep-24 19:01N 32°17' W 117°31'2 4.3
2017-Sep-24 18:31N 32°15' W 117°30'4 7.1
2017-Sep-24 18:00N 32°13' W 117°26'3 6.7
2017-Sep-24 17:30N 32°10' W 117°24'3 4.1
2017-Sep-24 16:45N 32°08' W 117°21'2 6.1
2017-Sep-24 16:27N 32°07' W 117°19'1 1.5
2017-Sep-24 16:00N 32°07' W 117°19'24 2.7
2017-Sep-24 07:21N 32°30' W 117°16'3 8.0
2017-Sep-24 07:00N 32°33' W 117°15'4 7.7
2017-Sep-24 06:31N 32°37' W 117°14'4 7.8
2017-Sep-24 06:00N 32°41' W 117°14'1 2.1
2017-Sep-24 05:30N 32°42' W 117°14'2 3.0
2017-Sep-24 04:56N 32°43' W 117°13'1 1.3
2017-Sep-24 04:30N 32°43' W 117°14'0 0.0
2017-Sep-24 04:00N 32°43' W 117°14'0 0.0
2017-Sep-24 03:31N 32°43' W 117°14'0 0.0
2017-Sep-24 03:00N 32°43' W 117°14'3 5.4
2017-Sep-24 02:30N 32°41' W 117°14'5 9.5
2017-Sep-24 02:00N 32°36' W 117°13'5 9.1
2017-Sep-24 01:30N 32°31' W 117°14'4 9.0
2017-Sep-24 01:00N 32°27' W 117°15'5 9.0
2017-Sep-24 00:28N 32°22' W 117°15'21 0.5
2017-Sep-22 01:57N 32°43' W 117°13'4 9.2
2017-Sep-22 01:30N 32°39' W 117°13'4 8.5
2017-Sep-22 01:01N 32°35' W 117°14'4 8.1
2017-Sep-22 00:30N 32°31' W 117°15'4 8.2
2017-Sep-21 23:59N 32°27' W 117°16'4 8.2
2017-Sep-21 23:29N 32°23' W 117°17'5 0.3
2017-Sep-21 07:46N 32°28' W 117°16'3 9.6
2017-Sep-21 07:30N 32°30' W 117°16'5 9.5
2017-Sep-21 07:00N 32°35' W 117°15'5 9.1
2017-Sep-21 06:30N 32°39' W 117°14'2 5.0
2017-Sep-21 06:00N 32°42' W 117°14'0 0.1
2017-Sep-21 05:30N 32°42' W 117°14'2 3.6
2017-Sep-21 05:01N 32°43' W 117°14'0 0.0
2017-Sep-21 04:30N 32°43' W 117°14'0 0.0
2017-Sep-21 04:00N 32°43' W 117°14'0 0.0
2017-Sep-21 03:30N 32°43' W 117°14'0 0.0
2017-Sep-21 03:00N 32°43' W 117°14'0 0.0
2017-Sep-21 02:30N 32°43' W 117°14'1 1.3
2017-Sep-21 02:00N 32°43' W 117°13'2 3.6
2017-Sep-21 01:31N 32°42' W 117°14'5 9.2
2017-Sep-21 01:00N 32°37' W 117°14'4 8.4
2017-Sep-21 00:31N 32°33' W 117°15'4 8.4
2017-Sep-21 00:00N 32°29' W 117°16'5 8.7
2017-Sep-20 23:27N 32°24' W 117°18'13 0.8
2017-Sep-20 06:41N 32°37' W 117°15'2 8.2
2017-Sep-20 06:29N 32°38' W 117°14'3 6.7
2017-Sep-20 06:00N 32°42' W 117°14'0 0.0
2017-Sep-20 05:30N 32°42' W 117°14'2 3.7
2017-Sep-20 05:00N 32°43' W 117°14'0 0.0
2017-Sep-20 04:30N 32°43' W 117°14'0 0.0
2017-Sep-20 04:00N 32°43' W 117°14'0 0.1
2017-Sep-20 03:20N 32°43' W 117°14'0 0.2
2017-Sep-20 03:00N 32°43' W 117°14'3 6.5
2017-Sep-20 02:30N 32°40' W 117°14'4 8.1
2017-Sep-20 02:00N 32°39' W 117°18'510.4
2017-Sep-20 01:30N 32°41' W 117°24'510.4
2017-Sep-20 01:00N 32°42' W 117°30'510.1
2017-Sep-20 00:30N 32°42' W 117°36'4 7.3
2017-Sep-20 00:00N 32°42' W 117°41'5 9.1
2017-Sep-19 23:30N 32°42' W 117°46'4 7.8
2017-Sep-19 23:00N 32°42' W 117°51'3 5.2
2017-Sep-19 22:30N 32°42' W 117°54'5 9.6
2017-Sep-19 22:00N 32°42' W 117°60'5 9.7
2017-Sep-19 21:30N 32°42' W 118°05'4 8.1
2017-Sep-19 21:00N 32°42' W 118°10'5 9.3
2017-Sep-19 20:26N 32°43' W 118°16'8 5.9
2017-Sep-19 19:07N 32°45' W 118°25'0 1.0
2017-Sep-19 18:52N 32°45' W 118°25'1 0.9
2017-Sep-19 18:07N 32°45' W 118°26'31 3.6
2017-Sep-19 09:30N 32°43' W 117°50'5 9.4
2017-Sep-19 09:00N 32°43' W 117°44'5 9.2
2017-Sep-19 08:30N 32°42' W 117°39'5 9.5
2017-Sep-19 08:00N 32°41' W 117°33'5 9.5
2017-Sep-19 07:30N 32°40' W 117°28'5 9.2
2017-Sep-19 07:00N 32°39' W 117°23'4 8.8
2017-Sep-19 06:30N 32°38' W 117°18'4 7.3
2017-Sep-19 06:00N 32°40' W 117°14'2 4.1
2017-Sep-19 05:30N 32°42' W 117°14'0 0.0
2017-Sep-19 05:00N 32°42' W 117°14'2 3.6
2017-Sep-19 04:30N 32°43' W 117°14'0 0.0
2017-Sep-19 04:00N 32°43' W 117°14'0 0.0
2017-Sep-19 03:30N 32°43' W 117°14'0 0.0
2017-Sep-19 02:59N 32°43' W 117°14'1 1.3
2017-Sep-19 02:30N 32°43' W 117°13'0 0.1
2017-Sep-19 02:00N 32°43' W 117°13'3 6.2
2017-Sep-19 01:30N 32°40' W 117°14'4 7.7
2017-Sep-19 01:00N 32°37' W 117°15'4 8.4
2017-Sep-19 00:30N 32°35' W 117°20'4 8.4
2017-Sep-19 00:00N 32°33' W 117°24'4 8.4
2017-Sep-18 23:30N 32°30' W 117°28'3 7.0
2017-Sep-18 23:00N 32°28' W 117°31'4 7.9
2017-Sep-18 22:30N 32°29' W 117°35'2 3.1
2017-Sep-18 22:00N 32°30' W 117°37'3 6.6
2017-Sep-18 21:30N 32°27' W 117°34'3 5.1
2017-Sep-18 21:00N 32°25' W 117°33'3 5.6
2017-Sep-18 20:30N 32°22' W 117°32'3 5.2
2017-Sep-18 19:56N 32°21' W 117°29'1 1.7
2017-Sep-18 19:30N 32°21' W 117°29'2 1.3
2017-Sep-18 17:45N 32°19' W 117°27'4 7.5
2017-Sep-18 17:15N 32°23' W 117°29'2 7.8
2017-Sep-18 17:00N 32°25' W 117°30'4 7.9
2017-Sep-18 16:30N 32°27' W 117°33'2 3.4
2017-Sep-18 16:00N 32°28' W 117°35'5 7.0
2017-Sep-18 15:13N 32°30' W 117°29'1 5.6
2017-Sep-18 15:00N 32°30' W 117°30'2 4.6
2017-Sep-18 14:30N 32°28' W 117°30'1 2.9
2017-Sep-18 14:00N 32°28' W 117°29'0 0.4
2017-Sep-18 13:30N 32°28' W 117°29'0 0.4
2017-Sep-18 12:57N 32°28' W 117°29'0 0.3
2017-Sep-18 12:30N 32°28' W 117°29'0 0.4
2017-Sep-18 12:00N 32°28' W 117°29'0 0.3
2017-Sep-18 11:30N 32°28' W 117°30'0 0.3
2017-Sep-18 10:58N 32°29' W 117°30'0 0.4
2017-Sep-18 10:30N 32°29' W 117°30'0 0.4
2017-Sep-18 10:00N 32°29' W 117°30'0 0.4
2017-Sep-18 09:25N 32°29' W 117°30'0 0.3
2017-Sep-18 08:59N 32°29' W 117°30'3 3.7
2017-Sep-18 08:06N 32°31' W 117°27'1 6.8
2017-Sep-18 07:59N 32°31' W 117°26'9 7.5
2017-Sep-18 06:46N 32°36' W 117°17'4 8.0
2017-Sep-18 06:14N 32°39' W 117°14'2 9.2
2017-Sep-18 06:00N 32°41' W 117°14'1 1.3
2017-Sep-18 05:30N 32°42' W 117°14'2 2.6
2017-Sep-18 04:51N 32°43' W 117°13'1 1.4
2017-Sep-18 04:30N 32°43' W 117°14'0 0.0
2017-Sep-18 04:01N 32°43' W 117°14'0 0.0
2017-Sep-18 03:30N 32°43' W 117°14'0 0.0
2017-Sep-18 03:01N 32°43' W 117°14'0 0.0
2017-Sep-18 02:30N 32°43' W 117°14'0 0.0
2017-Sep-18 02:01N 32°43' W 117°14'0 0.0
2017-Sep-18 01:30N 32°43' W 117°14'0 0.0
2017-Sep-18 00:58N 32°43' W 117°14'0 0.0
2017-Sep-18 00:30N 32°43' W 117°14'0 0.0
2017-Sep-18 00:00N 32°43' W 117°14'0 0.0
2017-Sep-17 23:30N 32°43' W 117°14'0 0.0
2017-Sep-17 23:00N 32°43' W 117°14'0 0.0
2017-Sep-17 22:30N 32°43' W 117°14'0 0.0
2017-Sep-17 21:59N 32°43' W 117°14'0 0.0
2017-Sep-17 21:30N 32°43' W 117°14'0 0.0
2017-Sep-17 21:00N 32°43' W 117°14'0 0.0
2017-Sep-17 20:31N 32°43' W 117°14'0 0.0
2017-Sep-17 20:00N 32°43' W 117°14'0 0.0
2017-Sep-17 19:31N 32°43' W 117°14'0 0.0
2017-Sep-17 19:00N 32°43' W 117°14'0 0.0
2017-Sep-17 18:30N 32°43' W 117°14'0 0.0
2017-Sep-17 18:01N 32°43' W 117°14'0 0.0
2017-Sep-17 17:30N 32°43' W 117°14'0 0.0
2017-Sep-17 17:00N 32°43' W 117°14'0 0.0
2017-Sep-17 16:30N 32°43' W 117°14'0 0.0
2017-Sep-17 16:00N 32°43' W 117°14'0 0.0
2017-Sep-17 15:30N 32°43' W 117°14'0 0.0
2017-Sep-17 15:00N 32°43' W 117°14'0 0.0
2017-Sep-17 14:31N 32°43' W 117°14'0 0.0
2017-Sep-17 14:00N 32°43' W 117°14'0 0.0
2017-Sep-17 13:30N 32°43' W 117°14'0 0.0
2017-Sep-17 13:01N 32°43' W 117°14'0 0.0
2017-Sep-17 12:30N 32°43' W 117°14'0 0.0
2017-Sep-17 12:00N 32°43' W 117°14'0 0.0
2017-Sep-17 11:30N 32°43' W 117°14'0 0.0
2017-Sep-17 11:00N 32°43' W 117°14'0 0.0
2017-Sep-17 10:30N 32°43' W 117°14'0 0.0
2017-Sep-17 10:00N 32°43' W 117°14'0 0.0
2017-Sep-17 09:30N 32°43' W 117°14'0 0.0
2017-Sep-17 09:00N 32°43' W 117°14'0 0.0
2017-Sep-17 08:30N 32°43' W 117°14'0 0.0
2017-Sep-17 08:01N 32°43' W 117°14'0 0.0
2017-Sep-17 07:30N 32°43' W 117°14'0 0.0
2017-Sep-17 07:00N 32°43' W 117°14'0 0.0
2017-Sep-17 06:31N 32°43' W 117°14'0 0.0
2017-Sep-17 06:00N 32°43' W 117°14'0 0.0
2017-Sep-17 05:30N 32°43' W 117°14'0 0.0
2017-Sep-17 05:00N 32°43' W 117°14'0 0.0
2017-Sep-17 04:30N 32°43' W 117°14'0 0.0
2017-Sep-17 04:00N 32°43' W 117°14'0 0.0
2017-Sep-17 03:30N 32°43' W 117°14'0 0.0
2017-Sep-17 03:01N 32°43' W 117°14'0 0.0
2017-Sep-17 02:30N 32°43' W 117°14'1 3.0
2017-Sep-17 02:01N 32°42' W 117°14'4 7.9
2017-Sep-17 01:30N 32°39' W 117°16'5 9.8
2017-Sep-17 01:00N 32°38' W 117°22'5 9.7
2017-Sep-17 00:30N 32°37' W 117°28'5 9.7
2017-Sep-17 00:01N 32°36' W 117°33'5 9.6
2017-Sep-16 23:30N 32°35' W 117°39'3 6.4
2017-Sep-16 23:00N 32°34' W 117°43'1 2.2
2017-Sep-16 22:30N 32°33' W 117°41'3 5.6
2017-Sep-16 22:01N 32°31' W 117°40'2 4.3
2017-Sep-16 21:30N 32°28' W 117°40'  

Dump ship's entire track history